Time;durP1;ratioP1;P1;durP2;ratioP2;P2;SDS_P1;SDS_P2;PMS_P1;PMS_P2;Temp;Humidity;BMP_temperature;BMP_pressure;BME280_temperature;BME280_humidity;BME280_pressure;Samples;Min_cycle;Max_cycle;Signal;HPM_P1;HPM_P2
2022/07/02 00:00:19;;;;;;;4.43;3.80;;;;;;;15.54;59.56;101594.56;682279;29;1131;-80
2022/07/02 00:00:39;;;;;;;4.85;3.90;;;;;;;15.53;59.64;101590.13;683938;28;1903;-80
2022/07/02 00:01:00;;;;;;;4.88;3.78;;;;;;;15.54;59.50;101587.53;684085;28;1394;-80
2022/07/02 00:01:21;;;;;;;5.38;3.75;;;;;;;15.53;59.46;101593.66;678930;29;1275;-81
2022/07/02 00:01:43;;;;;;;4.80;3.50;;;;;;;15.54;59.27;101597.19;674565;29;1309;-80
2022/07/02 00:02:06;;;;;;;3.90;3.50;;;;;;;15.52;59.31;101599.78;676690;29;1512;-81
2022/07/02 00:02:27;;;;;;;5.20;3.83;;;;;;;15.53;59.48;101595.38;678177;29;1307;-80
2022/07/02 00:02:51;;;;;;;5.18;3.80;;;;;;;15.45;59.56;101587.34;679139;29;1069;-80
2022/07/02 00:03:15;;;;;;;5.57;3.72;;;;;;;15.44;59.53;101590.84;679409;29;1554;-81
2022/07/02 00:03:37;;;;;;;5.03;3.85;;;;;;;15.40;59.60;101581.09;682451;29;816;-80
2022/07/02 00:04:04;;;;;;;7.20;4.07;;;;;;;15.49;59.52;101607.63;683128;28;1351;-80
2022/07/02 00:04:28;;;;;;;6.75;4.10;;;;;;;15.38;59.53;101580.19;682370;29;1999;-80
2022/07/02 00:05:02;;;;;;;4.57;3.70;;;;;;;15.41;59.80;101591.66;684691;28;1162;-81
2022/07/02 00:05:23;;;;;;;5.60;3.70;;;;;;;15.39;59.78;101587.22;679209;29;1694;-80
2022/07/02 00:05:58;;;;;;;4.88;3.80;;;;;;;15.39;59.63;101592.47;678463;29;1522;-80
2022/07/02 00:06:20;;;;;;;4.93;3.90;;;;;;;15.43;59.57;101594.34;679542;29;1160;-80
2022/07/02 00:06:42;;;;;;;4.82;3.92;;;;;;;15.40;59.73;101594.25;677177;29;1253;-80
2022/07/02 00:07:04;;;;;;;4.65;4.10;;;;;;;15.41;59.85;101588.13;676990;29;1333;-80
2022/07/02 00:07:27;;;;;;;4.40;4.00;;;;;;;15.39;59.72;101587.22;679760;29;1313;-80
2022/07/02 00:07:49;;;;;;;4.10;3.80;;;;;;;15.43;59.83;101597.84;680170;29;1259;-80
2022/07/02 00:08:12;;;;;;;4.28;3.97;;;;;;;15.42;59.66;101597.81;684570;28;1103;-80
2022/07/02 00:08:33;;;;;;;4.50;4.10;;;;;;;15.40;60.05;101594.25;679346;29;1264;-81
2022/07/02 00:08:54;;;;;;;4.53;4.13;;;;;;;15.44;60.10;101601.38;676762;29;1535;-80
2022/07/02 00:09:15;;;;;;;4.38;3.97;;;;;;;15.44;60.10;101601.38;671969;29;988;-80
2022/07/02 00:09:37;;;;;;;4.38;3.97;;;;;;;15.41;60.22;101602.19;674264;29;793;-80
2022/07/02 00:09:58;;;;;;;4.35;3.95;;;;;;;15.44;60.12;101601.38;676329;29;1492;-80
2022/07/02 00:10:20;;;;;;;4.93;4.10;;;;;;;15.40;60.20;101594.25;674479;29;1246;-80
2022/07/02 00:10:42;;;;;;;6.13;4.00;;;;;;;15.43;60.39;101605.72;674755;29;1277;-80
2022/07/02 00:11:03;;;;;;;5.60;3.90;;;;;;;15.40;60.24;101603.03;679309;29;1089;-80
2022/07/02 00:11:26;;;;;;;4.90;4.00;;;;;;;15.37;60.30;101596.81;682270;29;1701;-80
2022/07/02 00:11:49;;;;;;;4.90;4.10;;;;;;;15.40;60.25;101602.13;679631;29;1442;-80
2022/07/02 00:12:11;;;;;;;6.05;4.22;;;;;;;15.41;60.14;101601.28;679400;29;1339;-80
2022/07/02 00:12:32;;;;;;;7.05;4.30;;;;;;;15.40;60.30;101600.41;679769;29;1269;-81
2022/07/02 00:12:52;;;;;;;5.07;4.13;;;;;;;15.34;60.40;101589.75;679875;29;1341;-80
2022/07/02 00:13:14;;;;;;;4.75;3.95;;;;;;;15.37;60.34;101591.56;679458;29;1052;-81
2022/07/02 00:13:35;;;;;;;4.60;4.10;;;;;;;15.38;60.42;101596.88;682164;28;1253;-79
2022/07/02 00:13:56;;;;;;;4.82;4.07;;;;;;;15.35;60.56;101589.78;682280;28;1379;-80
2022/07/02 00:14:17;;;;;;;5.18;4.60;;;;;;;15.40;60.53;101594.25;680388;29;939;-79
2022/07/02 00:14:51;;;;;;;5.07;4.53;;;;;;;15.33;60.66;101578.38;677247;29;884;-80
2022/07/02 00:15:12;;;;;;;7.68;4.30;;;;;;;15.38;60.62;101595.97;676221;29;1489;-80
2022/07/02 00:15:33;;;;;;;7.28;4.05;;;;;;;15.39;60.49;101595.09;677233;29;886;-80
2022/07/02 00:16:00;;;;;;;6.65;3.92;;;;;;;15.46;60.52;101604.91;676808;29;1042;-80
2022/07/02 00:16:22;;;;;;;4.05;3.65;;;;;;;15.44;60.72;101602.25;677328;29;1789;-80
2022/07/02 00:16:46;;;;;;;5.03;3.80;;;;;;;15.38;60.60;101585.44;677018;29;1342;-80
2022/07/02 00:17:08;;;;;;;4.72;3.97;;;;;;;15.37;60.41;101588.94;681843;29;1586;-81
2022/07/02 00:17:29;;;;;;;4.68;4.20;;;;;;;15.44;60.61;101604.88;682739;28;1192;-80
2022/07/02 00:17:56;;;;;;;4.50;4.10;;;;;;;15.36;60.64;101590.66;682306;28;1579;-80
2022/07/02 00:18:19;;;;;;;5.53;3.90;;;;;;;15.34;60.76;101585.41;679987;29;1230;-80
2022/07/02 00:18:40;;;;;;;6.10;3.90;;;;;;;15.42;60.81;101609.22;679965;29;1662;-81
2022/07/02 00:19:01;;;;;;;5.95;3.70;;;;;;;15.43;60.70;101610.13;682119;28;1333;-81
2022/07/02 00:19:22;;;;;;;5.00;3.90;;;;;;;15.41;60.48;101610.06;678724;29;1738;-80
2022/07/02 00:19:45;;;;;;;4.90;3.92;;;;;;;15.32;60.68;101597.59;681426;29;1344;-80
2022/07/02 00:20:06;;;;;;;4.63;3.90;;;;;;;15.30;60.59;101594.06;678981;29;1142;-80
2022/07/02 00:20:27;;;;;;;4.72;3.95;;;;;;;15.37;60.57;101599.47;672991;29;1577;-79
2022/07/02 00:20:48;;;;;;;4.60;4.00;;;;;;;15.38;60.68;101603.84;677926;29;1923;-81
2022/07/02 00:21:15;;;;;;;4.85;3.75;;;;;;;15.38;60.84;101606.50;681523;29;1582;-80
2022/07/02 00:21:39;;;;;;;4.10;3.70;;;;;;;15.33;60.74;101602.03;679681;29;1121;-80
2022/07/02 00:22:01;;;;;;;4.30;3.90;;;;;;;15.37;60.75;101609.97;681733;28;1098;-80
2022/07/02 00:22:23;;;;;;;4.25;3.85;;;;;;;15.31;60.87;101602.84;676649;29;1325;-80
2022/07/02 00:22:48;;;;;;;4.47;3.90;;;;;;;15.37;60.75;101604.72;674475;29;1357;-80
2022/07/02 00:23:09;;;;;;;5.72;4.10;;;;;;;15.32;60.90;101602.88;678970;29;1856;-80
2022/07/02 00:23:30;;;;;;;6.13;4.32;;;;;;;15.32;61.06;101602.88;677037;29;1136;-80
2022/07/02 00:23:51;;;;;;;7.10;4.50;;;;;;;15.27;60.90;101587.84;678025;29;1109;-81
2022/07/02 00:24:12;;;;;;;5.60;4.40;;;;;;;15.34;61.01;101603.81;674293;29;1560;-80
2022/07/02 00:24:39;;;;;;;5.10;4.40;;;;;;;15.33;61.11;101609.94;674606;29;793;-80
2022/07/02 00:25:00;;;;;;;4.65;4.25;;;;;;;15.28;61.22;101594.88;676641;29;1296;-80
2022/07/02 00:25:24;;;;;;;4.30;3.90;;;;;;;15.31;60.95;101606.34;679716;29;1686;-80
2022/07/02 00:25:54;;;;;;;4.13;3.83;;;;;;;15.29;60.96;101596.66;679416;29;1091;-80
2022/07/02 00:26:32;;;;;;;5.03;4.22;;;;;;;15.30;60.98;101615.09;679437;29;1690;-81
2022/07/02 00:26:59;;;;;;;5.18;4.20;;;;;;;15.28;60.95;101611.56;678234;29;1137;-81
2022/07/02 00:27:20;;;;;;;6.05;4.50;;;;;;;15.23;61.03;101602.66;682356;29;1064;-80
2022/07/02 00:27:53;;;;;;;6.00;4.40;;;;;;;15.23;61.29;101602.66;679356;29;1854;-81
2022/07/02 00:28:16;;;;;;;5.38;4.32;;;;;;;15.28;61.23;101615.91;676569;29;2168;-80
2022/07/02 00:28:41;;;;;;;5.88;4.47;;;;;;;15.27;61.21;101609.78;679691;29;1116;-80
2022/07/02 00:29:29;;;;;;;5.57;4.50;;;;;;;15.23;61.52;101605.28;676359;29;1283;-81
2022/07/02 00:29:50;;;;;;;5.00;4.50;;;;;;;15.30;61.58;101608.97;680151;29;1100;-80
2022/07/02 00:30:14;;;;;;;4.80;4.40;;;;;;;15.30;61.50;101608.97;681415;29;1634;-80
2022/07/02 00:30:38;;;;;;;5.00;4.50;;;;;;;15.23;61.59;101601.78;682209;29;1224;-80
2022/07/02 00:30:59;;;;;;;5.03;4.53;;;;;;;15.20;61.57;101603.44;679476;29;1136;-81
2022/07/02 00:31:20;;;;;;;4.80;4.30;;;;;;;15.16;61.71;101596.38;684908;28;1154;-80
2022/07/02 00:31:41;;;;;;;5.13;4.63;;;;;;;15.24;61.50;101603.56;685001;28;1415;-80
2022/07/02 00:32:04;;;;;;;5.20;4.70;;;;;;;15.14;61.39;101592.81;678018;29;1259;-81
2022/07/02 00:32:27;;;;;;;5.30;4.80;;;;;;;15.21;61.48;101602.66;677343;29;1419;-80
2022/07/02 00:32:48;;;;;;;5.43;4.57;;;;;;;15.12;61.79;101596.25;675084;29;1130;-80
2022/07/02 00:33:12;;;;;;;5.93;4.50;;;;;;;15.12;61.49;101593.63;674826;29;973;-80
2022/07/02 00:33:37;;;;;;;5.78;4.70;;;;;;;15.15;61.55;101593.69;677603;29;1463;-81
2022/07/02 00:33:58;;;;;;;5.60;4.60;;;;;;;15.13;61.66;101590.16;676693;29;1129;-80
2022/07/02 00:34:22;;;;;;;4.95;4.38;;;;;;;15.15;61.46;101593.69;672287;29;1394;-80
2022/07/02 00:34:45;;;;;;;4.75;4.30;;;;;;;15.13;61.37;101595.41;674002;29;1162;-80
2022/07/02 00:35:09;;;;;;;4.60;4.28;;;;;;;15.16;61.35;101601.63;681414;29;1484;-81
2022/07/02 00:35:30;;;;;;;4.80;4.40;;;;;;;15.13;61.42;101595.41;682101;29;1233;-81
2022/07/02 00:35:51;;;;;;;5.40;4.50;;;;;;;15.15;61.61;101588.44;679619;29;1377;-81
2022/07/02 00:36:21;;;;;;;5.53;4.67;;;;;;;15.17;61.57;101594.59;680037;29;1642;-81
2022/07/02 00:36:43;;;;;;;5.47;4.80;;;;;;;15.20;61.44;101606.06;680154;29;836;-80
2022/07/02 00:37:08;;;;;;;5.30;4.78;;;;;;;15.14;61.57;101589.28;681429;29;1683;-80
2022/07/02 00:37:30;;;;;;;5.38;4.63;;;;;;;15.22;61.62;101608.78;682599;28;1730;-80
2022/07/02 00:37:52;;;;;;;6.20;4.70;;;;;;;15.20;61.55;101597.31;676361;29;1299;-80
2022/07/02 00:38:13;;;;;;;5.63;4.50;;;;;;;15.13;61.68;101590.16;679453;29;1036;-81
2022/07/02 00:38:33;;;;;;;4.97;4.10;;;;;;;15.19;61.46;101600.81;681098;29;876;-80
2022/07/02 00:38:54;;;;;;;4.88;4.38;;;;;;;15.20;61.73;101597.31;681455;28;1145;-81
2022/07/02 00:39:15;;;;;;;5.10;4.60;;;;;;;15.14;61.77;101591.91;677040;29;1022;-80
2022/07/02 00:39:37;;;;;;;6.90;4.93;;;;;;;15.20;61.91;101597.31;674079;29;1203;-80
2022/07/02 00:40:08;;;;;;;6.65;4.78;;;;;;;15.23;61.99;101607.06;675800;29;1290;-80
2022/07/02 00:40:30;;;;;;;6.68;4.90;;;;;;;15.24;61.57;101603.56;677590;29;872;-80
2022/07/02 00:40:53;;;;;;;6.25;4.63;;;;;;;15.22;62.05;101600.91;676636;29;1922;-81
2022/07/02 00:41:15;;;;;;;6.38;4.53;;;;;;;15.22;61.85;101600.91;682496;29;1767;-81
2022/07/02 00:41:36;;;;;;;5.15;4.30;;;;;;;15.21;61.90;101599.13;680261;28;1365;-80
2022/07/02 00:41:58;;;;;;;5.00;4.50;;;;;;;15.21;61.78;101588.59;679318;29;1633;-80
2022/07/02 00:42:20;;;;;;;5.45;4.35;;;;;;;15.18;61.96;101591.16;685380;28;1261;-80
2022/07/02 00:42:42;;;;;;;5.95;4.40;;;;;;;15.19;61.99;101590.28;682833;29;804;-80
2022/07/02 00:43:03;;;;;;;6.80;4.60;;;;;;;15.20;61.79;101594.69;681166;28;1523;-81
2022/07/02 00:43:24;;;;;;;6.00;4.80;;;;;;;15.21;61.85;101594.78;674388;29;1411;-80
2022/07/02 00:43:46;;;;;;;5.03;4.57;;;;;;;15.11;61.71;101587.47;677265;29;1285;-80
2022/07/02 00:44:07;;;;;;;5.30;4.43;;;;;;;15.16;61.74;101596.38;674184;29;1795;-80
2022/07/02 00:44:29;;;;;;;5.40;4.30;;;;;;;15.08;61.54;101579.53;677652;29;1385;-80
2022/07/02 00:44:51;;;;;;;4.78;4.30;;;;;;;15.19;61.71;101606.06;682056;29;1309;-81
2022/07/02 00:45:12;;;;;;;4.95;4.30;;;;;;;15.14;61.91;101597.19;682643;29;1393;-80
2022/07/02 00:45:34;;;;;;;5.13;4.30;;;;;;;15.17;61.88;101602.50;680291;29;932;-80
2022/07/02 00:45:56;;;;;;;6.20;4.43;;;;;;;15.15;61.80;101604.22;678806;29;1361;-80
2022/07/02 00:46:17;;;;;;;5.88;4.53;;;;;;;15.15;61.81;101602.47;677437;29;1191;-80
2022/07/02 00:46:41;;;;;;;7.30;4.70;;;;;;;15.15;61.91;101604.22;673510;29;1348;-80
2022/07/02 00:47:06;;;;;;;6.68;4.68;;;;;;;15.08;62.14;101590.03;680783;29;1270;-80
2022/07/02 00:47:29;;;;;;;5.20;4.60;;;;;;;15.13;62.04;101595.41;680117;29;1241;-80
2022/07/02 00:47:51;;;;;;;5.43;4.57;;;;;;;15.11;62.12;101589.25;681494;29;1460;-80
2022/07/02 00:48:14;;;;;;;6.78;4.60;;;;;;;15.10;62.24;101590.09;681577;29;1343;-80
2022/07/02 00:48:35;;;;;;;8.55;4.85;;;;;;;15.08;62.23;101588.28;677581;29;856;-81
2022/07/02 00:48:57;;;;;;;8.90;5.00;;;;;;;15.12;62.41;101593.63;673819;29;1143;-81
2022/07/02 00:49:18;;;;;;;8.60;4.95;;;;;;;15.11;62.36;101591.88;674849;29;1219;-80
2022/07/02 00:49:38;;;;;;;7.03;4.80;;;;;;;15.07;62.26;101586.53;674670;29;809;-80
2022/07/02 00:50:02;;;;;;;8.30;4.75;;;;;;;15.15;62.43;101604.22;678981;29;1179;-80
2022/07/02 00:50:24;;;;;;;7.45;4.60;;;;;;;15.07;62.25;101597.03;680047;29;1717;-81
2022/07/02 00:50:44;;;;;;;8.38;4.35;;;;;;;15.14;62.35;101599.81;678417;29;1411;-81
2022/07/02 00:51:05;;;;;;;8.07;4.60;;;;;;;15.10;62.23;101592.72;679889;29;2104;-81
2022/07/02 00:51:26;;;;;;;7.40;4.73;;;;;;;15.06;62.36;101590.00;682276;29;1680;-80
2022/07/02 00:51:47;;;;;;;9.63;5.25;;;;;;;15.10;62.19;101604.09;680487;29;1348;-80
2022/07/02 00:52:08;;;;;;;9.60;5.10;;;;;;;15.04;62.34;101590.81;679760;29;980;-80
2022/07/02 00:52:28;;;;;;;9.40;4.97;;;;;;;15.01;62.24;101586.38;685344;28;1262;-80
2022/07/02 00:52:50;;;;;;;9.60;4.97;;;;;;;15.11;62.44;101607.63;682714;28;1332;-81
2022/07/02 00:53:11;;;;;;;9.38;4.90;;;;;;;15.11;62.36;101597.13;678136;29;1184;-80
2022/07/02 00:53:31;;;;;;;9.80;5.00;;;;;;;15.08;62.46;101598.81;677691;29;738;-80
2022/07/02 00:53:53;;;;;;;10.20;5.00;;;;;;;15.03;62.50;101594.31;681304;28;1136;-80
2022/07/02 00:54:14;;;;;;;10.15;5.10;;;;;;;15.10;62.56;101600.59;679108;29;2190;-80
2022/07/02 00:54:35;;;;;;;9.33;4.87;;;;;;;15.02;62.57;101587.28;680145;29;757;-80
2022/07/02 00:54:56;;;;;;;9.38;4.88;;;;;;;15.03;62.48;101589.94;677155;29;1381;-80
2022/07/02 00:55:17;;;;;;;10.20;5.10;;;;;;;15.01;62.57;101582.88;674842;29;1352;-80
2022/07/02 00:55:38;;;;;;;10.23;5.20;;;;;;;15.06;62.56;101600.53;680216;29;832;-81
2022/07/02 00:55:58;;;;;;;8.00;5.32;;;;;;;15.06;62.51;101600.53;682342;28;2035;-80
2022/07/02 00:56:20;;;;;;;6.77;5.00;;;;;;;15.11;62.69;101602.38;685331;28;1282;-80
2022/07/02 00:56:40;;;;;;;5.85;4.72;;;;;;;15.05;62.70;101592.59;682896;29;851;-80
2022/07/02 00:57:02;;;;;;;5.57;4.80;;;;;;;15.00;62.60;101594.25;681043;29;1261;-80
2022/07/02 00:57:23;;;;;;;6.10;4.90;;;;;;;15.05;62.46;101601.38;680053;29;1788;-80
2022/07/02 00:57:47;;;;;;;6.57;4.70;;;;;;;15.05;62.61;101603.09;679850;29;1151;-79
2022/07/02 00:58:08;;;;;;;7.35;4.53;;;;;;;14.98;62.55;101588.06;680998;29;1502;-80
2022/07/02 00:58:31;;;;;;;8.00;4.72;;;;;;;15.01;62.48;101598.66;682814;29;1197;-81
2022/07/02 00:58:53;;;;;;;9.40;5.13;;;;;;;14.97;62.44;101591.53;682646;28;1409;-81
2022/07/02 00:59:14;;;;;;;8.15;4.90;;;;;;;15.04;62.60;101607.50;682529;28;1546;-81
2022/07/02 00:59:35;;;;;;;7.07;4.70;;;;;;;14.97;62.36;101599.41;679749;29;1322;-80
2022/07/02 00:59:56;;;;;;;6.97;4.97;;;;;;;14.97;62.63;101597.69;684043;28;1413;-80
2022/07/02 01:00:18;;;;;;;7.18;5.35;;;;;;;15.01;62.57;101601.28;680778;29;1013;-80
2022/07/02 01:00:39;;;;;;;8.38;5.47;;;;;;;15.00;62.69;101599.50;680002;29;1968;-80
2022/07/02 01:01:00;;;;;;;12.13;4.93;;;;;;;14.98;62.63;101602.09;679956;29;1447;-80
2022/07/02 01:01:21;;;;;;;12.35;4.90;;;;;;;15.04;62.43;101612.75;677352;29;1325;-80
2022/07/02 01:02:00;;;;;;;11.77;4.78;;;;;;;14.98;62.71;101598.59;674116;29;1281;-80
2022/07/02 01:02:22;;;;;;;7.18;4.68;;;;;;;15.03;62.65;101610.97;675218;29;1368;-80
2022/07/02 01:03:05;;;;;;;7.57;4.70;;;;;;;15.03;62.65;101610.97;679482;29;1137;-80
2022/07/02 01:03:28;;;;;;;9.95;4.80;;;;;;;14.95;62.58;101594.16;682718;29;2337;-80
2022/07/02 01:03:51;;;;;;;10.38;4.78;;;;;;;14.96;62.60;101598.53;682550;28;1367;-80
2022/07/02 01:04:14;;;;;;;12.52;4.80;;;;;;;15.00;62.48;101599.50;679828;29;1566;-80
2022/07/02 01:04:36;;;;;;;8.70;4.65;;;;;;;15.02;62.51;101603.94;683322;28;1240;-80
2022/07/02 01:04:58;;;;;;;6.55;4.60;;;;;;;14.98;62.72;101595.97;685018;28;1167;-80
2022/07/02 01:05:20;;;;;;;5.93;4.60;;;;;;;14.98;62.54;101595.97;680120;29;1194;-80
2022/07/02 01:05:41;;;;;;;7.90;4.50;;;;;;;14.94;62.59;101595.00;680144;29;856;-80
2022/07/02 01:06:02;;;;;;;11.10;4.90;;;;;;;14.99;62.38;101598.59;680152;29;1352;-80
2022/07/02 01:06:23;;;;;;;11.32;5.28;;;;;;;14.96;62.69;101601.19;684641;28;1735;-80
2022/07/02 01:06:45;;;;;;;10.23;4.97;;;;;;;14.97;62.65;101600.31;682766;28;1395;-80
2022/07/02 01:07:09;;;;;;;17.08;5.32;;;;;;;14.89;62.50;101584.34;686096;28;1945;-81
2022/07/02 01:07:30;;;;;;;17.63;6.07;;;;;;;14.87;62.57;101583.44;684578;28;1596;-80
2022/07/02 01:10:19;;;;;;;9.20;5.15;;;;;;;14.98;62.65;101607.34;681548;28;1306;-80
2022/07/02 01:10:45;;;;;;;11.73;5.25;;;;;;;14.98;62.59;101606.47;680037;29;1535;-80
2022/07/02 01:11:08;;;;;;;11.05;5.00;;;;;;;14.89;62.63;101591.38;677900;29;1537;-80
2022/07/02 01:11:31;;;;;;;10.70;5.60;;;;;;;14.89;62.64;101588.75;680122;29;822;-80
2022/07/02 01:11:53;;;;;;;10.38;5.78;;;;;;;14.92;62.55;101604.56;678319;29;1289;-80
2022/07/02 01:12:15;;;;;;;11.32;5.82;;;;;;;14.90;62.60;101591.41;677467;29;1682;-80
2022/07/02 01:12:41;;;;;;;10.60;5.38;;;;;;;14.89;62.79;101596.63;677009;29;1469;-80
2022/07/02 01:13:03;;;;;;;8.30;5.00;;;;;;;14.95;62.64;101607.28;680562;29;1667;-80
2022/07/02 01:13:25;;;;;;;7.30;5.00;;;;;;;14.88;62.77;101597.47;682760;29;1633;-80
2022/07/02 01:13:46;;;;;;;8.07;4.93;;;;;;;14.90;62.74;101595.78;687095;28;1241;-80
2022/07/02 01:14:07;;;;;;;9.05;5.13;;;;;;;14.92;62.75;101601.94;679971;29;1083;-80
2022/07/02 01:14:28;;;;;;;12.50;5.30;;;;;;;14.90;62.86;101598.41;676704;29;1137;-80
2022/07/02 01:14:50;;;;;;;12.05;5.43;;;;;;;14.92;62.78;101601.94;679837;29;1279;-80
2022/07/02 01:15:10;;;;;;;10.00;5.22;;;;;;;14.89;62.75;101599.25;677813;29;1467;-80
2022/07/02 01:15:31;;;;;;;7.70;4.90;;;;;;;14.91;62.74;101603.69;677506;29;1198;-80
2022/07/02 01:15:52;;;;;;;8.13;4.93;;;;;;;14.87;62.73;101593.06;677400;29;1113;-81
2022/07/02 01:16:13;;;;;;;7.78;5.00;;;;;;;14.92;62.67;101602.84;672487;29;1490;-80
2022/07/02 01:16:34;;;;;;;9.73;5.10;;;;;;;14.91;62.90;101602.78;679768;29;1241;-80
2022/07/02 01:16:56;;;;;;;10.80;4.97;;;;;;;14.88;62.84;101594.84;681895;28;1512;-80
2022/07/02 01:17:17;;;;;;;10.57;5.07;;;;;;;14.88;63.02;101603.59;677426;29;1331;-80
2022/07/02 01:17:37;;;;;;;8.75;5.03;;;;;;;14.87;62.81;101595.72;680205;29;1613;-79
2022/07/02 01:18:01;;;;;;;7.15;4.95;;;;;;;14.88;62.97;101597.47;681783;29;1251;-80
2022/07/02 01:18:22;;;;;;;9.68;5.00;;;;;;;14.85;62.87;101594.75;682589;29;1357;-80
2022/07/02 01:18:42;;;;;;;11.60;5.30;;;;;;;14.82;62.87;101589.44;680103;29;1261;-80
2022/07/02 01:19:04;;;;;;;11.27;5.10;;;;;;;14.87;63.41;101595.72;687661;28;1287;-80
2022/07/02 01:19:26;;;;;;;10.02;5.10;;;;;;;14.79;62.83;101590.25;682563;29;1261;-80
2022/07/02 01:19:48;;;;;;;10.80;5.10;;;;;;;14.79;62.88;101585.91;674643;29;1272;-80
2022/07/02 01:20:09;;;;;;;14.70;5.35;;;;;;;14.86;63.16;101604.44;679805;29;1786;-80
2022/07/02 01:20:30;;;;;;;13.40;5.35;;;;;;;14.75;62.93;101583.16;677773;29;1524;-80
2022/07/02 01:20:51;;;;;;;11.57;5.10;;;;;;;14.75;62.90;101584.03;679696;29;1919;-80
2022/07/02 01:21:12;;;;;;;10.65;5.40;;;;;;;14.78;63.08;101591.13;680291;29;1328;-80
2022/07/02 01:21:33;;;;;;;11.17;5.27;;;;;;;14.75;63.09;101591.91;680020;29;1191;-80
2022/07/02 01:22:06;;;;;;;8.90;5.30;;;;;;;14.82;63.11;101599.97;682576;28;1272;-80
2022/07/02 01:22:53;;;;;;;8.35;5.30;;;;;;;14.75;63.10;101591.91;678029;29;1364;-80
2022/07/02 01:23:14;;;;;;;13.80;5.50;;;;;;;14.79;63.20;101596.41;679773;28;1575;-80
2022/07/02 01:23:34;;;;;;;14.45;5.65;;;;;;;14.73;63.01;101584.84;677622;29;781;-80
2022/07/02 01:23:55;;;;;;;16.52;5.97;;;;;;;14.70;63.19;101580.44;677417;29;1202;-80
2022/07/02 01:24:23;;;;;;;13.50;5.70;;;;;;;14.72;63.24;101583.97;676874;29;1497;-80
2022/07/02 01:24:48;;;;;;;8.48;5.22;;;;;;;14.74;63.27;101591.91;680011;29;1078;-79
2022/07/02 01:25:08;;;;;;;11.30;5.53;;;;;;;14.73;63.35;101588.38;678246;29;1137;-80
2022/07/02 01:25:30;;;;;;;11.40;5.30;;;;;;;14.71;63.07;101583.94;681766;29;1721;-80
2022/07/02 01:25:52;;;;;;;12.40;5.60;;;;;;;14.76;63.08;101598.06;684557;28;1113;-80
2022/07/02 01:26:12;;;;;;;9.85;5.40;;;;;;;14.65;63.34;101579.44;682374;29;1481;-80
2022/07/02 01:26:33;;;;;;;9.75;5.57;;;;;;;14.67;63.36;101590.84;682695;29;1204;-80
2022/07/02 01:26:54;;;;;;;10.47;5.50;;;;;;;14.69;63.09;101586.50;683606;28;1638;-80
2022/07/02 01:27:16;;;;;;;11.15;5.40;;;;;;;14.69;63.20;101589.13;682311;28;1761;-80
2022/07/02 01:27:37;;;;;;;14.18;5.50;;;;;;;14.66;63.15;101583.81;677466;29;1085;-80
2022/07/02 01:27:58;;;;;;;14.73;5.33;;;;;;;14.64;63.24;101581.16;679899;29;1502;-80
2022/07/02 01:28:20;;;;;;;15.13;5.72;;;;;;;14.58;63.02;101574.88;679569;29;1292;-79
2022/07/02 01:28:41;;;;;;;12.60;5.90;;;;;;;14.63;63.17;101584.63;680286;29;827;-80
2022/07/02 01:29:02;;;;;;;10.53;5.60;;;;;;;14.63;63.13;101589.00;679640;29;1420;-80
2022/07/02 01:29:23;;;;;;;9.13;5.10;;;;;;;14.62;63.13;101587.25;677449;29;1738;-80
2022/07/02 01:29:43;;;;;;;8.80;4.95;;;;;;;14.61;63.07;101585.44;679849;29;748;-80
2022/07/02 01:30:05;;;;;;;9.15;5.35;;;;;;;14.62;63.28;101589.88;679865;29;1685;-80
2022/07/02 01:30:26;;;;;;;8.50;5.57;;;;;;;14.61;63.39;101585.44;679905;29;848;-80
2022/07/02 01:30:49;;;;;;;9.18;5.30;;;;;;;14.65;63.34;101587.31;680243;28;1480;-81
2022/07/02 01:31:10;;;;;;;8.13;5.47;;;;;;;14.57;63.38;101579.22;680588;29;1787;-80
2022/07/02 01:31:31;;;;;;;8.32;5.57;;;;;;;14.61;63.45;101580.19;674869;29;1299;-80
2022/07/02 01:31:51;;;;;;;8.87;5.90;;;;;;;14.60;63.36;101589.81;676215;29;1266;-80
2022/07/02 01:32:12;;;;;;;8.52;5.47;;;;;;;14.62;63.45;101584.63;677619;29;1670;-80
2022/07/02 01:32:33;;;;;;;8.88;5.28;;;;;;;14.67;63.52;101588.22;677383;29;1403;-80
2022/07/02 01:32:54;;;;;;;8.32;5.50;;;;;;;14.68;63.29;101592.63;676135;29;1225;-80
2022/07/02 01:33:15;;;;;;;7.68;5.55;;;;;;;14.63;63.50;101583.75;675812;29;1806;-80
2022/07/02 01:33:35;;;;;;;8.80;5.85;;;;;;;14.60;63.47;101570.53;677523;29;891;-80
2022/07/02 01:33:56;;;;;;;10.37;5.90;;;;;;;14.67;63.41;101596.09;677938;29;1151;-80
2022/07/02 01:34:17;;;;;;;11.80;6.00;;;;;;;14.64;63.54;101582.91;677287;29;1706;-80
2022/07/02 01:34:40;;;;;;;9.90;5.50;;;;;;;14.69;63.50;101588.28;677320;29;1314;-80
2022/07/02 01:35:05;;;;;;;8.88;5.22;;;;;;;14.59;63.66;101571.38;682156;29;1284;-80
2022/07/02 01:35:26;;;;;;;7.65;5.20;;;;;;;14.62;63.57;101579.38;682267;29;1258;-80
2022/07/02 01:35:47;;;;;;;9.32;5.65;;;;;;;14.68;63.58;101591.75;680624;29;1577;-80
2022/07/02 01:36:08;;;;;;;9.55;5.78;;;;;;;14.66;63.64;101586.44;678481;29;1548;-79
2022/07/02 01:36:28;;;;;;;9.85;5.70;;;;;;;14.61;63.60;101573.22;677681;29;1942;-80
2022/07/02 01:36:49;;;;;;;8.03;5.30;;;;;;;14.64;63.66;101580.28;674526;29;1084;-81
2022/07/02 01:37:12;;;;;;;8.57;5.13;;;;;;;14.58;63.56;101570.53;679386;29;1562;-80
2022/07/02 01:37:33;;;;;;;9.35;5.47;;;;;;;14.65;63.48;101584.69;677394;29;1206;-80
2022/07/02 01:37:54;;;;;;;8.48;5.60;;;;;;;14.65;63.43;101582.91;679972;29;1058;-81
2022/07/02 01:38:15;;;;;;;8.68;5.70;;;;;;;14.66;63.46;101582.09;678289;29;1872;-80
2022/07/02 01:38:36;;;;;;;7.90;5.70;;;;;;;14.69;63.63;101590.91;682387;29;1694;-80
2022/07/02 01:38:56;;;;;;;8.02;5.80;;;;;;;14.59;63.79;101579.28;682523;29;1117;-80
2022/07/02 01:39:26;;;;;;;6.93;5.57;;;;;;;14.64;63.69;101582.91;685003;28;1018;-79
2022/07/02 01:39:48;;;;;;;9.15;5.65;;;;;;;14.66;63.76;101596.97;682201;28;1227;-80
2022/07/02 01:40:09;;;;;;;9.20;5.80;;;;;;;14.67;63.60;101590.84;678390;29;1411;-80
2022/07/02 01:40:30;;;;;;;9.38;5.88;;;;;;;14.59;63.56;101576.66;677324;29;1246;-80
2022/07/02 01:40:51;;;;;;;9.43;5.68;;;;;;;14.59;63.59;101576.66;678202;29;1989;-81
2022/07/02 01:41:52;;;;;;;7.50;5.80;;;;;;;14.56;63.52;101581.84;679978;29;1228;-80
2022/07/02 01:42:14;;;;;;;8.23;5.90;;;;;;;14.63;63.30;101592.50;679794;29;1359;-80
2022/07/02 01:44:20;;;;;;;10.35;5.90;;;;;;;14.57;63.54;101591.50;685445;28;1408;-80
2022/07/02 01:44:42;;;;;;;9.97;6.10;;;;;;;14.50;63.57;101578.19;680176;29;1210;-80
2022/07/02 01:45:04;;;;;;;8.55;6.20;;;;;;;14.58;63.43;101590.63;677019;29;1313;-80
2022/07/02 01:45:24;;;;;;;8.40;5.85;;;;;;;14.50;63.33;101583.44;677474;29;785;-80
2022/07/02 01:45:45;;;;;;;8.40;6.30;;;;;;;14.56;63.49;101593.22;674916;29;1287;-79
2022/07/02 01:46:06;;;;;;;8.88;6.40;;;;;;;14.62;63.51;101597.75;679833;29;1760;-80
2022/07/02 01:46:27;;;;;;;8.70;6.80;;;;;;;14.56;63.55;101592.34;682551;29;1275;-79
2022/07/02 01:46:48;;;;;;;8.57;6.70;;;;;;;14.55;63.65;101586.19;680816;28;1192;-80
2022/07/02 01:47:10;;;;;;;9.63;6.97;;;;;;;14.51;63.52;101585.22;679104;29;1219;-80
2022/07/02 01:47:31;;;;;;;9.73;6.82;;;;;;;14.53;63.44;101588.75;679930;29;1301;-81
2022/07/02 01:47:52;;;;;;;8.07;6.55;;;;;;;14.57;63.41;101594.13;677302;29;1192;-80
2022/07/02 01:48:24;;;;;;;8.53;6.50;;;;;;;14.52;63.46;101587.00;682141;29;1465;-80
2022/07/02 01:48:57;;;;;;;8.70;6.40;;;;;;;14.58;63.36;101601.13;682171;29;1278;-80
2022/07/02 01:49:18;;;;;;;9.30;6.90;;;;;;;14.58;63.70;101601.13;679652;29;1490;-80
2022/07/02 01:49:39;;;;;;;9.43;7.05;;;;;;;14.56;63.52;101592.34;677122;29;868;-80
2022/07/02 01:50:00;;;;;;;7.93;7.10;;;;;;;14.57;63.33;101594.13;676717;29;1449;-81
2022/07/02 01:50:21;;;;;;;8.68;6.93;;;;;;;14.48;63.32;101584.25;676942;29;1207;-80
2022/07/02 01:50:41;;;;;;;8.57;6.93;;;;;;;14.46;63.45;101581.63;677474;29;1165;-80
2022/07/02 01:51:02;;;;;;;9.65;6.90;;;;;;;14.46;63.27;101586.88;677101;29;1258;-80
2022/07/02 01:51:23;;;;;;;8.73;6.88;;;;;;;14.51;63.29;101590.47;677436;29;1315;-81
2022/07/02 01:51:43;;;;;;;9.85;7.20;;;;;;;14.45;63.48;101579.81;681318;29;1182;-79
2022/07/02 01:52:05;;;;;;;10.27;7.37;;;;;;;14.49;63.42;101592.19;677408;29;982;-80
2022/07/02 01:52:26;;;;;;;12.95;7.47;;;;;;;14.44;63.38;101579.78;677429;29;1261;-80